Barlborough, United Kingdom
Current Conditions -  °F | °C
As of 1:50 PM on Wednesday 26 Nov 2014 (Local Time) from EGCN Reporting Station
Overcast Overcast  
Wind Chill: 46°   Ceiling: 2300
Heat Index: 48°   Visibility: 5mi
Dew Point: 45°   Wind: 5mph
Humidity: 87%   Direction: 50°NE
Pressure: 29.88"   Gusts: NA
Location:  53.29°N, 1.29°W
Report Text: EGCN 261350Z 05004KT 8000 BKN023 OVC028 09/07 Q1012
Loading
Personal Weather Stations






























Interactive Weather Map New forecast layout! Learn more

10-Day Weather Forecast

Advertisements
Track Severe Weather on mobile